Time;durP1;ratioP1;P1;durP2;ratioP2;P2;SDS_P1;SDS_P2;PMS_P1;PMS_P2;Temp;Humidity;BMP_temperature;BMP_pressure;BME280_temperature;BME280_humidity;BME280_pressure;Samples;Min_cycle;Max_cycle;Signal;HPM_P1;HPM_P2
2023/02/27 00:02:15;;;;;;;21.70;6.60;;;;;;;-0.02;100.00;101543.36;5142841;55;1138991;-76
2023/02/27 00:07:24;;;;;;;17.20;5.27;;;;;;;-0.13;100.00;101540.92;5122857;55;1140941;-75
2023/02/27 00:12:29;;;;;;;16.30;6.07;;;;;;;-0.20;100.00;101539.33;5122387;55;1140760;-75
2023/02/27 00:17:35;;;;;;;17.47;5.40;;;;;;;-0.34;100.00;101540.01;5142788;55;1140925;-79
2023/02/27 00:22:43;;;;;;;22.90;6.47;;;;;;;-0.39;100.00;101544.41;5122588;55;1140989;-76
2023/02/27 00:27:48;;;;;;;14.73;5.03;;;;;;;-0.41;100.00;101539.67;5122593;55;1140748;-76
2023/02/27 00:32:55;;;;;;;13.47;5.33;;;;;;;-0.41;100.00;101539.23;5142823;55;1141148;-76
2023/02/27 00:38:01;;;;;;;20.37;6.13;;;;;;;-0.40;100.00;101546.59;5122644;55;1141004;-77
2023/02/27 00:43:07;;;;;;;20.53;6.80;;;;;;;-0.34;100.00;101549.55;5122288;55;1140835;-76
2023/02/27 00:48:12;;;;;;;16.77;5.27;;;;;;;-0.33;100.00;101556.02;5122534;55;1140846;-74
2023/02/27 00:53:19;;;;;;;14.07;4.73;;;;;;;-0.33;100.00;101555.16;5142658;55;1140959;-77
2023/02/27 00:58:25;;;;;;;11.13;4.70;;;;;;;-0.37;100.00;101547.84;5122391;55;1140825;-76
2023/02/27 01:03:32;;;;;;;14.70;6.00;;;;;;;-0.33;100.00;101552.56;5121672;55;1152090;-78
2023/02/27 01:08:38;;;;;;;11.08;5.05;;;;;;;-0.30;100.00;101552.05;5142519;55;1140922;-75
2023/02/27 01:13:45;;;;;;;10.95;3.72;;;;;;;-0.22;100.00;101564.94;5122272;55;1140846;-74
2023/02/27 01:18:51;;;;;;;7.97;3.43;;;;;;;-0.16;100.00;101563.55;5102951;55;1140905;-77
2023/02/27 01:23:57;;;;;;;6.53;3.23;;;;;;;-0.22;100.00;101559.30;5085446;55;1138681;-75
2023/02/27 01:29:02;;;;;;;11.33;3.87;;;;;;;-0.19;100.00;101562.29;5122458;55;1138767;-74
2023/02/27 01:34:10;;;;;;;12.00;4.25;;;;;;;-0.18;100.00;101566.17;5122388;55;1140784;-74
2023/02/27 01:39:15;;;;;;;9.87;4.47;;;;;;;-0.12;100.00;101563.89;5142154;55;1140808;-77
2023/02/27 01:44:21;;;;;;;11.93;4.17;;;;;;;-0.14;100.00;101560.01;5122452;55;1138839;-75
2023/02/27 01:49:33;;;;;;;9.93;5.03;;;;;;;-0.12;100.00;101568.64;5122227;55;1140867;-73
2023/02/27 01:54:42;;;;;;;13.13;5.00;;;;;;;-0.15;100.00;101577.79;5142741;55;1138730;-75
2023/02/27 01:59:48;;;;;;;11.50;5.47;;;;;;;-0.27;100.00;101578.00;5122319;55;1140970;-73
2023/02/27 02:04:55;;;;;;;10.50;4.97;;;;;;;-0.36;100.00;101580.31;5122094;55;1140800;-75
2023/02/27 02:10:05;;;;;;;10.80;4.43;;;;;;;-0.33;100.00;101583.75;5142637;55;1140851;-74
2023/02/27 02:15:11;;;;;;;10.57;4.80;;;;;;;-0.31;100.00;101585.45;5091196;56;1140806;-73
2023/02/27 02:20:24;;;;;;;12.57;5.60;;;;;;;-0.28;100.00;101580.17;5116359;56;1140759;-74
2023/02/27 02:26:06;;;;;;;10.70;3.90;;;;;;;-0.17;100.00;101580.02;5158319;55;1140914;-75
2023/02/27 02:31:46;;;;;;;11.12;4.75;;;;;;;-0.15;100.00;101586.89;5156984;55;1140793;-76
2023/02/27 02:37:25;;;;;;;7.70;3.10;;;;;;;-0.27;100.00;101586.23;5176280;55;1140893;-75
2023/02/27 02:42:50;;;;;;;12.70;3.77;;;;;;;-0.34;100.00;101589.39;5041445;55;1138639;-76
2023/02/27 02:48:19;;;;;;;8.67;3.33;;;;;;;-0.39;100.00;101589.89;4893055;58;1140860;-75
2023/02/27 02:53:53;;;;;;;10.40;3.67;;;;;;;-0.47;100.00;101588.73;4923207;58;1138794;-77
2023/02/27 02:59:06;;;;;;;9.87;3.10;;;;;;;-0.48;100.00;101597.41;4945537;58;1140832;-75
2023/02/27 03:04:34;;;;;;;6.10;3.10;;;;;;;-0.47;100.00;101604.76;4922666;58;1139015;-75
2023/02/27 03:10:02;;;;;;;8.30;3.30;;;;;;;-0.48;100.00;101602.60;4938367;57;1138768;-79
2023/02/27 03:15:24;;;;;;;5.15;3.00;;;;;;;-0.41;100.00;101614.60;5017097;57;1138908;-76
2023/02/27 03:20:40;;;;;;;10.30;3.87;;;;;;;-0.42;100.00;101616.78;4946235;57;1138763;-72
2023/02/27 03:25:46;;;;;;;9.13;3.57;;;;;;;-0.40;100.00;101617.63;5025510;55;1140893;-76
2023/02/27 03:31:18;;;;;;;5.70;2.37;;;;;;;-0.31;100.00;101619.24;5122114;55;1138643;-75
2023/02/27 03:36:42;;;;;;;8.10;5.10;;;;;;;-0.30;100.00;101626.13;5122308;55;1138722;-77
2023/02/27 03:42:08;;;;;;;40.80;13.40;;;;;;;-0.27;100.00;101623.92;5142126;55;1138751;-76
2023/02/27 03:47:15;;;;;;;21.33;7.20;;;;;;;-0.23;100.00;101632.10;5123761;55;1142991;-74
2023/02/27 03:52:23;;;;;;;12.05;5.00;;;;;;;-0.21;100.00;101636.84;5122178;55;1140745;-77
2023/02/27 03:57:30;;;;;;;7.37;3.40;;;;;;;-0.22;100.00;101639.02;5141909;55;1140687;-73
2023/02/27 04:02:37;;;;;;;7.97;3.13;;;;;;;-0.20;100.00;101638.13;5122229;55;1138769;-77
2023/02/27 04:07:59;;;;;;;7.07;3.47;;;;;;;-0.12;100.00;101640.59;5122179;55;1138605;-74
2023/02/27 04:13:30;;;;;;;12.93;5.35;;;;;;;-0.12;100.00;101645.34;5088191;55;1138726;-73
2023/02/27 04:19:00;;;;;;;33.46;15.50;;;;;;;-0.04;100.00;101654.34;5178903;55;1140781;-76
2023/02/27 04:24:22;;;;;;;34.50;16.20;;;;;;;0.00;100.00;101658.62;4996264;57;1143076;-76
2023/02/27 04:29:59;;;;;;;31.90;14.70;;;;;;;0.07;100.00;101664.56;5144650;55;1140779;-75
2023/02/27 04:35:21;;;;;;;28.00;7.87;;;;;;;0.02;100.00;101659.42;5150518;55;1140960;-75
2023/02/27 04:40:36;;;;;;;9.20;3.73;;;;;;;-0.08;100.00;101673.47;5122895;55;1138716;-77
2023/02/27 04:45:44;;;;;;;14.93;4.15;;;;;;;-0.14;100.00;101670.95;5084940;56;1138984;-74
2023/02/27 04:50:58;;;;;;;12.20;4.60;;;;;;;-0.12;100.00;101684.78;5149763;56;1140857;-74
2023/02/27 04:56:11;;;;;;;10.10;5.12;;;;;;;-0.12;100.00;101683.48;5156442;55;1140811;-77
2023/02/27 05:01:21;;;;;;;9.08;4.87;;;;;;;-0.10;100.00;101686.92;5160086;55;1140807;-75
2023/02/27 05:06:30;;;;;;;7.70;3.80;;;;;;;-0.05;100.00;101687.28;5065575;55;1138691;-73
2023/02/27 05:11:59;;;;;;;7.17;3.03;;;;;;;-0.04;100.00;101689.45;5070629;56;1138692;-75
2023/02/27 05:17:09;;;;;;;9.33;4.03;;;;;;;-0.05;100.00;101683.39;5079439;55;1138754;-74
2023/02/27 05:22:28;;;;;;;13.33;4.27;;;;;;;0.02;100.00;101688.48;5128167;55;1138700;-73
2023/02/27 05:27:50;;;;;;;15.40;4.33;;;;;;;0.06;100.00;101694.91;5052860;55;1138741;-73
2023/02/27 05:33:22;;;;;;;45.30;14.13;;;;;;;0.12;100.00;101701.77;5032401;56;1138757;-75
2023/02/27 05:38:52;;;;;;;33.33;11.00;;;;;;;0.16;100.00;101704.28;5060283;55;1140801;-78
2023/02/27 05:44:03;;;;;;;74.77;23.43;;;;;;;0.18;100.00;101705.12;5094943;56;1140780;-77
2023/02/27 05:49:22;;;;;;;74.23;18.80;;;;;;;0.21;100.00;101714.18;5115060;55;1140826;-73
2023/02/27 05:55:05;;;;;;;25.97;6.13;;;;;;;0.28;100.00;101729.27;4932586;58;1140688;-74
2023/02/27 06:00:21;;;;;;;16.20;6.80;;;;;;;0.32;100.00;101733.07;4858970;58;1138818;-72
2023/02/27 06:05:28;;;;;;;18.37;7.97;;;;;;;0.25;100.00;101740.58;4889472;58;1138814;-75
2023/02/27 06:10:34;;;;;;;19.23;5.73;;;;;;;0.23;100.00;101753.19;4912808;58;1138746;-75
2023/02/27 06:15:40;;;;;;;10.25;3.98;;;;;;;0.22;100.00;101752.77;4907466;58;1138817;-74
2023/02/27 06:20:46;;;;;;;27.67;8.17;;;;;;;0.19;100.00;101754.11;5020706;56;1138757;-74
2023/02/27 06:25:52;;;;;;;14.43;6.80;;;;;;;0.16;100.00;101759.34;5092324;55;1138949;-77
2023/02/27 06:30:58;;;;;;;11.37;5.50;;;;;;;0.18;100.00;101766.69;5100727;56;1138941;-75
2023/02/27 06:36:04;;;;;;;13.15;5.42;;;;;;;0.20;100.00;101771.00;5038864;56;1138825;-76
2023/02/27 06:41:10;;;;;;;8.27;4.73;;;;;;;0.20;100.00;101768.84;5040823;56;1138713;-74
2023/02/27 06:46:17;;;;;;;67.30;23.60;;;;;;;0.23;100.00;101772.26;5100125;56;1136788;-74
2023/02/27 06:51:23;;;;;;;149.80;38.93;;;;;;;0.23;100.00;101768.80;5089462;56;1140956;-73
2023/02/27 06:56:29;;;;;;;40.63;11.13;;;;;;;0.24;100.00;101785.69;5110513;55;1142948;-76
2023/02/27 07:01:35;;;;;;;18.93;7.07;;;;;;;0.25;100.00;101790.01;5084722;55;1140846;-76
2023/02/27 07:06:41;;;;;;;30.53;10.07;;;;;;;0.28;100.00;101795.61;4995050;56;1138849;-77
2023/02/27 07:11:46;;;;;;;24.50;8.07;;;;;;;0.32;100.00;101802.47;5056733;56;1150379;-76
2023/02/27 07:16:55;;;;;;;20.80;6.10;;;;;;;0.29;100.00;101806.00;5094499;55;1138757;-74
2023/02/27 07:22:01;;;;;;;20.10;6.70;;;;;;;0.28;100.00;101810.78;5028342;55;1138718;-72
2023/02/27 07:27:07;;;;;;;23.70;8.73;;;;;;;0.29;100.00;101812.51;5095488;54;1138701;-74
2023/02/27 07:32:12;;;;;;;29.43;11.43;;;;;;;0.31;100.00;101816.36;5036938;56;1138719;-76
2023/02/27 07:37:19;;;;;;;28.20;8.50;;;;;;;0.40;100.00;101812.78;5071458;55;1140765;-73
2023/02/27 07:42:25;;;;;;;14.43;6.40;;;;;;;0.50;100.00;101815.20;5092167;54;1139149;-76
2023/02/27 07:47:33;;;;;;;14.90;5.30;;;;;;;0.64;100.00;101821.49;5042623;55;1138770;-77
2023/02/27 07:52:42;;;;;;;20.10;7.00;;;;;;;0.67;100.00;101829.27;5050601;56;1138830;-75
2023/02/27 07:57:48;;;;;;;17.15;7.03;;;;;;;0.71;100.00;101827.04;5014942;57;1138934;-74
2023/02/27 08:02:56;;;;;;;18.57;8.23;;;;;;;0.78;100.00;101825.17;5055939;56;1138832;-80
2023/02/27 08:08:02;;;;;;;12.10;5.40;;;;;;;0.80;100.00;101833.38;5011136;57;1138772;-78
2023/02/27 08:13:09;;;;;;;21.90;7.47;;;;;;;0.86;100.00;101838.51;4989495;56;1138784;-80
2023/02/27 08:18:14;;;;;;;17.80;6.53;;;;;;;0.87;100.00;101845.88;5015834;56;1138744;-75
2023/02/27 08:23:20;;;;;;;23.47;7.20;;;;;;;0.90;100.00;101841.92;5069342;55;1138806;-79
2023/02/27 08:28:26;;;;;;;36.10;13.30;;;;;;;0.92;100.00;101842.29;5105108;55;1138810;-76
2023/02/27 08:33:33;;;;;;;22.17;8.57;;;;;;;0.93;100.00;101845.31;5078741;55;1140812;-78
2023/02/27 08:38:39;;;;;;;25.33;12.50;;;;;;;1.01;100.00;101858.23;5113795;55;1138904;-78
2023/02/27 08:43:45;;;;;;;22.23;9.47;;;;;;;1.08;100.00;101858.52;5081790;55;1146929;-74
2023/02/27 08:48:50;;;;;;;10.23;4.40;;;;;;;1.20;100.00;101867.45;5122834;55;1138822;-73
2023/02/27 08:53:57;;;;;;;13.55;4.90;;;;;;;1.24;100.00;101866.94;5135829;55;1138765;-75
2023/02/27 08:59:03;;;;;;;10.77;5.33;;;;;;;1.25;100.00;101872.12;5097242;55;1138693;-76
2023/02/27 09:04:10;;;;;;;11.63;5.83;;;;;;;1.27;100.00;101879.48;5102335;55;1138695;-74
2023/02/27 09:09:16;;;;;;;21.03;7.87;;;;;;;1.27;100.00;101890.34;5135979;55;1138775;-74
2023/02/27 09:14:23;;;;;;;21.93;6.90;;;;;;;1.25;100.00;101893.41;5084990;55;1138780;-77
2023/02/27 09:19:29;;;;;;;17.07;4.87;;;;;;;1.25;100.00;101904.70;5109678;55;1138955;-77
2023/02/27 09:24:34;;;;;;;14.40;5.07;;;;;;;1.28;100.00;101902.48;5135940;56;1138800;-78
2023/02/27 09:29:40;;;;;;;10.53;5.10;;;;;;;1.34;100.00;101903.70;5118818;56;1138709;-77
2023/02/27 09:34:46;;;;;;;8.80;4.63;;;;;;;1.41;100.00;101906.59;5108480;55;1138768;-77
2023/02/27 09:39:52;;;;;;;17.52;7.25;;;;;;;1.50;100.00;101902.54;5131366;55;1136892;-77
2023/02/27 09:45:05;;;;;;;10.60;4.10;;;;;;;1.62;100.00;101906.66;5117849;55;1139127;-76
2023/02/27 09:50:43;;;;;;;23.10;6.30;;;;;;;1.75;100.00;101909.45;5088780;56;1138832;-79
2023/02/27 09:55:50;;;;;;;10.50;4.57;;;;;;;1.85;100.00;101914.03;5135895;56;1138786;-79
2023/02/27 10:01:15;;;;;;;12.00;3.15;;;;;;;1.94;100.00;101915.19;5145877;55;1138727;-79
2023/02/27 10:06:31;;;;;;;8.13;4.57;;;;;;;2.03;100.00;101918.90;5075536;55;1138756;-78
2023/02/27 10:11:58;;;;;;;9.43;3.90;;;;;;;2.11;100.00;101928.31;5047682;56;1136731;-78
2023/02/27 10:17:11;;;;;;;8.78;4.60;;;;;;;2.21;100.00;101932.89;5055111;56;1136672;-77
2023/02/27 10:22:36;;;;;;;8.27;3.47;;;;;;;2.24;100.00;101933.28;5069898;56;1136648;-76
2023/02/27 10:27:45;;;;;;;11.87;3.73;;;;;;;2.29;100.00;101934.87;5079259;55;1233378;-76
2023/02/27 10:33:04;;;;;;;5.20;3.17;;;;;;;2.38;100.00;101929.93;5083626;55;1148631;-76
2023/02/27 10:38:36;;;;;;;8.03;2.80;;;;;;;2.46;100.00;101937.14;5077991;55;1136667;-75
2023/02/27 10:43:43;;;;;;;5.13;2.77;;;;;;;2.56;100.00;101929.98;5106696;55;1136569;-74
2023/02/27 10:48:48;;;;;;;6.40;2.37;;;;;;;2.67;100.00;101930.59;5096041;55;1136618;-77
2023/02/27 10:54:18;;;;;;;5.20;2.70;;;;;;;2.74;100.00;101934.81;5091417;55;1136679;-76
2023/02/27 10:59:36;;;;;;;18.60;8.20;;;;;;;2.76;100.00;101937.77;5056089;56;1136910;-76
2023/02/27 11:04:54;;;;;;;4.20;2.00;;;;;;;2.81;100.00;101932.00;5080824;55;1138996;-78
2023/02/27 11:10:19;;;;;;;4.97;1.85;;;;;;;2.90;100.00;101937.48;5005107;56;1136730;-78
2023/02/27 11:15:30;;;;;;;2.90;1.77;;;;;;;3.01;100.00;101930.23;5043804;56;1136726;-81
2023/02/27 11:20:42;;;;;;;7.03;2.77;;;;;;;3.27;100.00;101923.51;5069478;56;1136615;-77
2023/02/27 11:25:49;;;;;;;5.08;2.72;;;;;;;3.46;100.00;101923.02;5115050;56;1136670;-79
2023/02/27 11:31:03;;;;;;;6.20;3.00;;;;;;;3.59;100.00;101926.61;5101881;55;1136553;-78
2023/02/27 11:36:09;;;;;;;8.55;3.12;;;;;;;3.61;100.00;101930.05;5083841;56;1136693;-80
2023/02/27 11:41:15;;;;;;;10.10;2.52;;;;;;;3.53;100.00;101932.84;5052077;55;1136635;-81
2023/02/27 11:46:24;;;;;;;4.87;2.20;;;;;;;3.41;100.00;101932.72;5088638;55;1138769;-80
2023/02/27 11:52:04;;;;;;;10.83;1.77;;;;;;;3.30;100.00;101933.89;5100847;55;1136784;-80
2023/02/27 11:57:37;;;;;;;1.98;1.75;;;;;;;3.24;100.00;101930.97;5129097;55;1138760;-81
2023/02/27 12:03:34;;;;;;;6.83;2.80;;;;;;;3.21;100.00;101936.75;5162191;55;1136807;-83
2023/02/27 12:08:54;;;;;;;6.47;2.30;;;;;;;3.30;100.00;101916.45;5152007;55;1136605;-82
2023/02/27 12:14:13;;;;;;;6.00;2.93;;;;;;;3.66;100.00;101915.10;5136830;55;1136833;-80
2023/02/27 12:19:54;;;;;;;9.20;3.62;;;;;;;3.67;100.00;101922.88;5127825;55;1136579;-85
2023/02/27 12:25:28;;;;;;;7.70;2.80;;;;;;;3.61;100.00;101923.06;5150895;55;1136631;-81
2023/02/27 12:30:45;;;;;;;3.08;1.07;;;;;;;3.60;100.00;101926.58;5181673;55;1136622;-79
2023/02/27 12:35:58;;;;;;;5.33;1.80;;;;;;;3.59;100.00;101923.55;5170099;55;1136933;-80
2023/02/27 12:41:38;;;;;;;5.23;3.40;;;;;;;3.58;100.00;101927.51;5146179;55;1136575;-80
2023/02/27 12:46:50;;;;;;;11.13;5.63;;;;;;;3.53;100.00;101922.39;5182026;55;1136755;-81
2023/02/27 12:52:15;;;;;;;9.13;2.63;;;;;;;3.50;100.00;101929.89;5206083;55;1138844;-79
2023/02/27 12:57:57;;;;;;;7.50;3.17;;;;;;;3.49;100.00;101927.31;5186480;55;1136530;-80
2023/02/27 13:03:36;;;;;;;12.13;4.20;;;;;;;3.54;100.00;101930.20;5174236;55;1136603;-81
2023/02/27 13:09:21;;;;;;;29.67;9.17;;;;;;;3.57;100.00;101932.33;5102788;55;1138826;-80
2023/02/27 13:14:49;;;;;;;15.80;4.43;;;;;;;3.54;100.00;101934.56;5145454;55;1138721;-83
2023/02/27 13:20:23;;;;;;;7.47;1.67;;;;;;;3.57;100.00;101924.03;5149461;55;1138741;-86
2023/02/27 13:25:31;;;;;;;4.45;2.30;;;;;;;3.67;100.00;101929.87;5144090;55;1136784;-79
2023/02/27 13:31:03;;;;;;;7.93;3.73;;;;;;;3.70;100.00;101923.25;5180289;55;1136695;-80
2023/02/27 13:36:22;;;;;;;6.47;2.77;;;;;;;3.63;100.00;101929.56;5127363;55;1136679;-86
2023/02/27 13:41:35;;;;;;;11.73;4.93;;;;;;;3.61;98.29;101937.89;5168084;55;1136658;-79
2023/02/27 13:46:41;;;;;;;2.30;1.80;;;;;;;3.53;100.00;101936.33;5156180;55;1136721;-80
2023/02/27 13:51:49;;;;;;;5.80;2.90;;;;;;;3.51;100.00;101942.04;5182792;55;1136605;-78
2023/02/27 13:57:00;;;;;;;8.15;2.55;;;;;;;3.47;100.00;101939.12;5131015;55;1136779;-81
2023/02/27 14:02:13;;;;;;;7.40;3.13;;;;;;;3.45;100.00;101937.44;5101224;55;1136719;-78
2023/02/27 14:07:23;;;;;;;15.98;3.83;;;;;;;3.44;100.00;101944.87;5153380;55;1145486;-82
2023/02/27 14:12:35;;;;;;;5.57;4.67;;;;;;;3.40;100.00;101948.45;5160823;55;1138642;-82
2023/02/27 14:17:44;;;;;;;9.33;4.63;;;;;;;3.36;100.00;101950.27;5092780;56;1136530;-78
2023/02/27 14:23:24;;;;;;;4.97;2.73;;;;;;;3.37;100.00;101951.99;5053329;56;1136605;-77
2023/02/27 14:28:50;;;;;;;42.10;17.07;;;;;;;3.40;100.00;101951.92;5032365;56;1136706;-79
2023/02/27 14:34:03;;;;;;;6.87;4.37;;;;;;;3.38;100.00;101958.08;5031016;57;1150564;-78
2023/02/27 14:39:05;;;;;;;24.78;7.18;;;;;;;3.32;100.00;101973.50;5063277;55;1136662;-84
2023/02/27 14:44:26;;;;;;;12.40;5.30;;;;;;;3.30;100.00;101971.81;5099658;56;1138839;-80
2023/02/27 14:49:35;;;;;;;18.65;6.22;;;;;;;3.29;100.00;101967.47;5099723;56;1138960;-86
2023/02/27 14:54:41;;;;;;;17.70;5.60;;;;;;;3.30;100.00;101980.52;5057414;56;1138667;-80
2023/02/27 14:59:50;;;;;;;15.35;7.55;;;;;;;3.32;100.00;101984.41;5037758;56;1138881;-77
2023/02/27 15:05:07;;;;;;;38.60;12.07;;;;;;;3.25;100.00;101977.14;5077460;55;1138679;-82
2023/02/27 15:10:23;;;;;;;16.10;6.10;;;;;;;3.21;100.00;101988.56;5122949;55;1140889;-78
2023/02/27 15:15:28;;;;;;;15.87;6.13;;;;;;;3.18;100.00;101985.59;5142735;55;1138834;-79
2023/02/27 15:20:36;;;;;;;22.60;10.27;;;;;;;3.16;100.00;101990.44;5073886;55;1139068;-81
2023/02/27 15:25:42;;;;;;;61.20;18.00;;;;;;;3.15;100.00;101989.58;5087582;55;1140837;-81
2023/02/27 15:30:54;;;;;;;50.83;16.47;;;;;;;3.13;100.00;101999.66;5098402;55;1140889;-82
2023/02/27 15:36:01;;;;;;;16.20;8.70;;;;;;;3.11;100.00;102002.30;5094071;54;1140864;-79
2023/02/27 15:41:08;;;;;;;28.97;11.03;;;;;;;3.09;100.00;102007.15;5088990;55;1138829;-81
2023/02/27 15:46:14;;;;;;;16.27;7.43;;;;;;;3.09;100.00;102013.69;5087624;55;1141218;-83
2023/02/27 15:51:20;;;;;;;17.67;8.87;;;;;;;3.09;100.00;102020.22;5091385;55;1139058;-80
2023/02/27 15:56:32;;;;;;;19.13;8.80;;;;;;;3.08;100.00;102024.59;5113961;55;1138862;-82
2023/02/27 16:01:38;;;;;;;21.03;9.43;;;;;;;3.07;100.00;102028.09;5094713;55;1138712;-77
2023/02/27 16:06:48;;;;;;;31.30;13.57;;;;;;;3.08;100.00;102031.56;5061552;55;1194470;-81
2023/02/27 16:12:18;;;;;;;36.65;17.42;;;;;;;3.04;100.00;102037.33;5085448;55;1140891;-78
2023/02/27 16:17:32;;;;;;;34.33;15.17;;;;;;;3.03;100.00;102046.06;5143406;55;1141073;-83
2023/02/27 16:22:41;;;;;;;51.37;21.33;;;;;;;3.01;100.00;102052.22;5102427;55;1140786;-81
2023/02/27 16:27:50;;;;;;;87.50;31.17;;;;;;;2.96;100.00;102052.30;5061343;55;1140883;-67
2023/02/27 16:33:02;;;;;;;88.57;33.53;;;;;;;2.88;100.00;102060.77;5086418;55;1140985;-68
2023/02/27 16:38:10;;;;;;;91.60;40.60;;;;;;;2.78;100.00;102061.39;5082710;55;1141716;-68
2023/02/27 16:43:16;;;;;;;98.17;44.38;;;;;;;2.71;100.00;102066.34;5101101;55;1140943;-71
2023/02/27 16:48:23;;;;;;;79.72;40.95;;;;;;;2.72;100.00;102068.51;5120218;55;1140881;-79
2023/02/27 16:53:28;;;;;;;76.83;33.83;;;;;;;2.71;100.00;102070.70;5117929;55;1140891;-85
2023/02/27 16:58:34;;;;;;;75.60;32.73;;;;;;;2.66;100.00;102071.23;5146965;55;1140796;-78
2023/02/27 17:03:41;;;;;;;37.25;13.88;;;;;;;2.60;100.00;102084.44;5119961;56;1140880;-83
2023/02/27 17:08:47;;;;;;;21.33;10.05;;;;;;;2.56;100.00;102090.60;5098964;56;1141200;-75
2023/02/27 17:13:53;;;;;;;18.23;9.57;;;;;;;2.52;100.00;102094.16;5022296;56;1140912;-79
2023/02/27 17:18:58;;;;;;;33.23;12.27;;;;;;;2.46;100.00;102093.81;5059622;56;1139024;-81
2023/02/27 17:24:05;;;;;;;24.27;12.00;;;;;;;2.46;100.00;102104.25;5043923;56;1140828;-84
2023/02/27 17:29:11;;;;;;;24.20;11.03;;;;;;;2.43;100.00;102113.03;5063426;55;1141078;-87
2023/02/27 17:34:20;;;;;;;31.85;14.90;;;;;;;2.45;100.00;102112.53;5082615;55;1140961;-84
2023/02/27 17:39:27;;;;;;;192.90;69.10;;;;;;;2.50;100.00;102115.52;5087428;55;1140807;-83
2023/02/27 17:44:32;;;;;;;285.87;104.13;;;;;;;2.54;100.00;102126.33;5040635;55;1142925;-83
2023/02/27 17:49:38;;;;;;;255.93;93.97;;;;;;;2.54;100.00;102125.02;5077631;55;1145233;-77
2023/02/27 17:54:44;;;;;;;119.93;46.03;;;;;;;2.53;100.00;102133.74;5134437;55;1142891;-78
2023/02/27 17:59:50;;;;;;;112.88;39.92;;;;;;;2.50;100.00;102129.88;5043292;56;1143039;-80
2023/02/27 18:04:57;;;;;;;119.37;44.07;;;;;;;2.42;100.00;102134.81;5057194;56;1142977;-83
2023/02/27 18:10:04;;;;;;;114.83;45.80;;;;;;;2.37;100.00;102133.16;5065026;56;1143218;-83
2023/02/27 18:15:10;;;;;;;102.40;40.03;;;;;;;2.28;100.00;102124.20;4941138;57;1143056;-81
2023/02/27 18:20:16;;;;;;;113.15;39.65;;;;;;;2.30;100.00;102133.70;4985154;57;1143113;-84
2023/02/27 18:25:22;;;;;;;138.77;47.13;;;;;;;2.07;100.00;102138.02;5034959;57;1143276;-89
2023/02/27 18:30:32;;;;;;;180.43;59.23;;;;;;;1.97;100.00;102140.81;5039190;57;1142910;-80
2023/02/27 18:35:37;;;;;;;201.00;66.00;;;;;;;2.00;100.00;102142.05;5008151;57;1143118;-81
2023/02/27 18:40:43;;;;;;;208.27;72.70;;;;;;;1.96;100.00;102145.61;5042271;56;1143155;-79
2023/02/27 18:45:49;;;;;;;270.25;90.77;;;;;;;1.88;100.00;102152.24;5057769;56;1143070;-79
2023/02/27 18:51:01;;;;;;;257.62;90.30;;;;;;;1.86;100.00;102147.93;5048357;56;1143083;-82
2023/02/27 18:56:08;;;;;;;231.47;79.90;;;;;;;1.89;100.00;102153.97;5100752;56;1142921;-78
2023/02/27 19:01:26;;;;;;;269.10;93.00;;;;;;;1.92;100.00;102151.76;5119366;56;1142935;-81
2023/02/27 19:06:42;;;;;;;324.63;111.90;;;;;;;1.93;100.00;102151.73;5098434;56;1143023;-83
2023/02/27 19:11:48;;;;;;;313.43;105.83;;;;;;;1.95;100.00;102152.58;5098900;56;1145143;-84
2023/02/27 19:16:55;;;;;;;318.03;109.73;;;;;;;1.95;100.00;102155.19;5119221;56;1144994;-80
2023/02/27 19:22:01;;;;;;;324.17;110.50;;;;;;;1.94;100.00;102155.21;5018663;56;1145129;-80
2023/02/27 19:27:07;;;;;;;342.50;117.30;;;;;;;1.86;100.00;102160.97;5095525;56;1227889;-83
2023/02/27 19:32:13;;;;;;;314.17;115.43;;;;;;;1.81;100.00;102161.06;5098980;55;1145080;-78
2023/02/27 19:37:20;;;;;;;346.87;124.00;;;;;;;1.76;100.00;102170.25;5129939;55;1144987;-77
2023/02/27 19:42:26;;;;;;;308.27;117.57;;;;;;;1.71;100.00;102164.23;5090971;55;1145169;-81
2023/02/27 19:47:33;;;;;;;270.57;99.80;;;;;;;1.67;100.00;102167.80;5104767;55;1145087;-76
2023/02/27 19:52:39;;;;;;;304.10;107.50;;;;;;;1.61;100.00;102176.13;5119838;55;1143191;-86
2023/02/27 19:57:45;;;;;;;323.85;111.92;;;;;;;1.53;100.00;102171.01;5098480;55;1145139;-78
2023/02/27 20:02:50;;;;;;;332.73;107.80;;;;;;;1.48;100.00;102176.75;5047298;55;1145066;-81
2023/02/27 20:07:56;;;;;;;342.20;106.20;;;;;;;1.40;100.00;102181.19;5075283;55;1145000;-84
2023/02/27 20:13:02;;;;;;;279.45;96.53;;;;;;;1.33;100.00;102182.17;5086855;55;1145061;-69
2023/02/27 20:18:07;;;;;;;190.45;63.38;;;;;;;1.27;100.00;102187.00;5112455;55;1143214;-67
2023/02/27 20:23:14;;;;;;;187.27;65.17;;;;;;;1.23;100.00;102182.70;5145998;55;1143026;-70
2023/02/27 20:28:20;;;;;;;279.33;95.50;;;;;;;1.19;100.00;102186.69;5162392;55;1143044;-66
2023/02/27 20:33:26;;;;;;;297.47;100.63;;;;;;;1.13;100.00;102190.66;5100521;55;1142886;-67
2023/02/27 20:38:33;;;;;;;228.63;81.20;;;;;;;1.00;100.00;102199.93;5135841;55;1145450;-68
2023/02/27 20:43:41;;;;;;;223.23;86.60;;;;;;;0.87;100.00;102200.95;5164897;55;1142987;-82
2023/02/27 20:48:46;;;;;;;224.77;87.43;;;;;;;0.78;100.00;102198.86;5105016;55;1143186;-79
2023/02/27 20:53:55;;;;;;;217.53;82.07;;;;;;;0.65;100.00;102206.80;5110024;55;1142924;-74
2023/02/27 20:59:05;;;;;;;204.20;75.07;;;;;;;0.63;100.00;102212.89;5120536;56;1142913;-75
2023/02/27 21:04:10;;;;;;;206.57;83.47;;;;;;;0.61;100.00;102224.62;5157320;55;1143008;-67
2023/02/27 21:09:17;;;;;;;343.35;113.97;;;;;;;0.57;100.00;102219.48;5114265;55;1143271;-72
2023/02/27 21:14:24;;;;;;;357.43;120.60;;;;;;;0.54;100.00;102224.70;5091304;56;1145111;-71
2023/02/27 21:19:30;;;;;;;265.32;98.45;;;;;;;0.50;100.00;102226.47;5101115;55;1145120;-69
2023/02/27 21:24:36;;;;;;;281.20;102.43;;;;;;;0.51;100.00;102226.89;5097835;56;1142817;-67
2023/02/27 21:29:42;;;;;;;263.40;99.93;;;;;;;0.52;100.00;102225.16;5121245;56;1145068;-67
2023/02/27 21:34:48;;;;;;;239.55;86.42;;;;;;;0.49;100.00;102223.88;5101513;56;1143015;-70
2023/02/27 21:39:56;;;;;;;242.53;88.00;;;;;;;0.44;100.00;102223.08;5081164;55;1142953;-73
2023/02/27 21:45:01;;;;;;;184.70;71.20;;;;;;;0.40;100.00;102231.34;5112540;55;1142944;-68
2023/02/27 21:50:12;;;;;;;147.90;55.33;;;;;;;0.34;100.00;102233.54;5085026;55;1142903;-64
2023/02/27 21:55:16;;;;;;;112.42;44.30;;;;;;;0.28;100.00;102237.52;5088546;55;1142956;-67
2023/02/27 22:00:25;;;;;;;109.70;41.98;;;;;;;0.18;100.00;102239.73;5074463;55;1143297;-68
2023/02/27 22:05:30;;;;;;;170.43;59.80;;;;;;;0.17;100.00;102243.21;5113693;55;1142944;-68
2023/02/27 22:10:44;;;;;;;181.17;65.17;;;;;;;0.08;100.00;102244.59;5109321;55;1142836;-71
2023/02/27 22:15:45;;;;;;;198.68;67.65;;;;;;;-0.04;100.00;102246.84;5126907;56;1142984;-69
2023/02/27 22:20:50;;;;;;;225.00;77.57;;;;;;;-0.06;100.00;102240.78;5057919;56;1145080;-67
2023/02/27 22:26:01;;;;;;;181.37;61.67;;;;;;;-0.05;100.00;102247.71;5163689;55;1145211;-69
2023/02/27 22:31:18;;;;;;;233.07;80.13;;;;;;;-0.08;100.00;102242.52;5187835;55;1145105;-70
2023/02/27 22:36:28;;;;;;;201.47;71.57;;;;;;;-0.12;100.00;102238.64;5207880;55;1145121;-70
2023/02/27 22:41:37;;;;;;;287.83;93.10;;;;;;;-0.22;100.00;102245.64;5150764;55;1144890;-67
2023/02/27 22:46:48;;;;;;;217.83;75.70;;;;;;;-0.27;100.00;102242.19;5119583;55;1144875;-69
2023/02/27 22:51:54;;;;;;;218.93;76.17;;;;;;;-0.31;100.00;102248.30;5148813;55;1144978;-68
2023/02/27 22:57:01;;;;;;;186.10;67.10;;;;;;;-0.36;100.00;102247.02;5138950;55;1144950;-65
2023/02/27 23:02:06;;;;;;;193.03;70.20;;;;;;;-0.34;100.00;102250.05;5121037;55;1145030;-70
2023/02/27 23:07:12;;;;;;;224.05;76.10;;;;;;;-0.34;100.00;102257.41;5120549;55;1144918;-67
2023/02/27 23:12:18;;;;;;;257.33;87.80;;;;;;;-0.36;100.00;102256.12;5126909;55;1145085;-64